createdAt,value
2023-01-20T00:02:33.394Z,100.00
2023-01-20T00:07:35.360Z,100.00
2023-01-20T00:12:37.262Z,100.00
2023-01-20T00:17:39.086Z,100.00
2023-01-20T00:22:40.891Z,100.00
2023-01-20T00:27:42.713Z,100.00
2023-01-20T00:32:44.697Z,100.00
2023-01-20T00:37:46.763Z,100.00
2023-01-20T00:42:48.642Z,100.00
2023-01-20T00:47:50.466Z,100.00
2023-01-20T00:52:52.283Z,100.00
2023-01-20T00:57:54.181Z,100.00
2023-01-20T01:02:56.144Z,100.00
2023-01-20T01:07:58.040Z,100.00
2023-01-20T01:13:00.951Z,100.00
2023-01-20T01:18:02.898Z,100.00
2023-01-20T01:23:04.779Z,100.00
2023-01-20T01:28:06.680Z,100.00
2023-01-20T01:33:08.571Z,100.00
2023-01-20T01:38:10.435Z,100.00
2023-01-20T01:43:35.757Z,100.00
2023-01-20T01:48:40.468Z,100.00
2023-01-20T01:53:46.093Z,100.00
2023-01-20T01:58:48.901Z,100.00
2023-01-20T02:03:59.988Z,100.00
2023-01-20T02:09:02.674Z,100.00
2023-01-20T02:14:04.302Z,100.00
2023-01-20T02:19:08.730Z,100.00
2023-01-20T02:24:43.239Z,100.00
2023-01-20T02:29:48.181Z,100.00
2023-01-20T02:34:57.339Z,100.00
2023-01-20T02:40:28.332Z,100.00
2023-01-20T02:45:42.135Z,100.00
2023-01-20T02:50:54.137Z,100.00
2023-01-20T02:55:56.001Z,100.00
2023-01-20T03:01:08.478Z,100.00
2023-01-20T03:06:20.242Z,100.00
2023-01-20T03:11:22.140Z,100.00
2023-01-20T03:16:24.792Z,100.00
2023-01-20T03:21:26.397Z,100.00
2023-01-20T03:26:28.448Z,100.00
2023-01-20T03:31:34.227Z,100.00
2023-01-20T03:36:36.175Z,100.00
2023-01-20T03:41:49.950Z,100.00
2023-01-20T03:47:18.146Z,100.00
2023-01-20T03:52:48.121Z,100.00
2023-01-20T03:58:01.816Z,100.00
2023-01-20T04:03:09.343Z,100.00
2023-01-20T04:08:11.417Z,99.84
2023-01-20T04:13:13.722Z,100.00
2023-01-20T04:18:17.561Z,99.81
2023-01-20T04:23:28.077Z,99.23
2023-01-20T04:28:30.425Z,98.89
2023-01-20T04:33:32.334Z,98.38
2023-01-20T04:38:34.273Z,97.95
2023-01-20T04:43:36.219Z,97.54
2023-01-20T04:48:38.030Z,97.26
2023-01-20T04:53:39.818Z,96.87
2023-01-20T04:58:41.906Z,96.49
2023-01-20T05:03:44.041Z,96.93
2023-01-20T05:08:45.835Z,96.57
2023-01-20T05:13:47.588Z,96.57
2023-01-20T05:18:49.619Z,96.08
2023-01-20T05:23:53.956Z,95.90
2023-01-20T05:28:55.768Z,95.95
2023-01-20T05:33:57.540Z,95.57
2023-01-20T05:38:59.251Z,95.77
2023-01-20T05:44:00.991Z,95.03
2023-01-20T05:49:02.783Z,94.41
2023-01-20T05:54:04.671Z,94.77
2023-01-20T05:59:06.459Z,94.29
2023-01-20T06:04:08.292Z,94.01
2023-01-20T06:09:10.037Z,93.88
2023-01-20T06:14:12.457Z,93.78
2023-01-20T06:19:14.221Z,93.86
2023-01-20T06:24:16.088Z,93.38
2023-01-20T06:29:17.834Z,93.45
2023-01-20T06:34:19.588Z,93.43
2023-01-20T06:39:21.335Z,93.07
2023-01-20T06:44:23.136Z,92.98
2023-01-20T06:49:24.922Z,92.99
2023-01-20T06:54:26.660Z,92.86
2023-01-20T06:59:28.409Z,92.76
2023-01-20T07:04:30.356Z,93.05
2023-01-20T07:09:32.096Z,92.48
2023-01-20T07:14:33.819Z,92.88
2023-01-20T07:19:35.644Z,92.82
2023-01-20T07:24:37.450Z,92.77
2023-01-20T07:29:39.166Z,91.99
2023-01-20T07:34:40.914Z,92.12
2023-01-20T07:39:42.739Z,92.32
2023-01-20T07:44:44.520Z,91.65
2023-01-20T07:49:46.301Z,91.89
2023-01-20T07:54:48.094Z,92.52
2023-01-20T07:59:49.855Z,92.81
2023-01-20T08:04:51.691Z,93.20
2023-01-20T08:09:53.508Z,92.45
2023-01-20T08:14:55.398Z,92.05
2023-01-20T08:19:57.294Z,92.20
2023-01-20T08:24:59.257Z,91.99
2023-01-20T08:30:00.978Z,91.79
2023-01-20T08:35:02.790Z,92.18
2023-01-20T08:40:09.268Z,91.36
2023-01-20T08:45:11.213Z,91.26
2023-01-20T08:50:14.098Z,91.42
2023-01-20T08:55:16.238Z,91.42
2023-01-20T09:00:18.798Z,91.39
2023-01-20T09:05:20.569Z,91.64
2023-01-20T09:10:22.324Z,91.34
2023-01-20T09:15:25.602Z,90.98
2023-01-20T09:20:27.739Z,90.64
2023-01-20T09:25:29.549Z,90.65
2023-01-20T09:30:31.349Z,89.96
2023-01-20T09:35:33.087Z,89.74
2023-01-20T09:40:58.486Z,88.62
2023-01-20T09:46:14.459Z,88.94
2023-01-20T09:51:31.393Z,88.44
2023-01-20T09:56:35.878Z,88.80
2023-01-20T10:01:48.537Z,88.28
2023-01-20T10:06:52.763Z,87.88
2023-01-20T10:11:58.984Z,88.07
2023-01-20T10:17:37.159Z,88.11
2023-01-20T10:22:56.482Z,87.56
2023-01-20T10:28:11.669Z,86.53
2023-01-20T10:33:23.825Z,85.95
2023-01-20T10:38:53.572Z,85.99
2023-01-20T10:43:56.053Z,86.06
2023-01-20T10:49:16.380Z,86.03
2023-01-20T10:54:29.216Z,86.11
2023-01-20T10:59:52.157Z,85.11
2023-01-20T11:05:18.971Z,85.81
2023-01-20T11:10:22.797Z,85.70
2023-01-20T11:15:29.594Z,85.22
2023-01-20T11:20:31.358Z,86.07
2023-01-20T11:25:33.137Z,85.48
2023-01-20T11:30:34.916Z,85.87
2023-01-20T11:35:36.943Z,85.91
2023-01-20T11:40:38.673Z,85.49
2023-01-20T11:45:40.404Z,85.45
2023-01-20T11:50:49.529Z,85.20
2023-01-20T11:55:56.265Z,84.95
2023-01-20T12:01:07.784Z,84.86
2023-01-20T12:06:19.303Z,84.81
2023-01-20T12:11:31.113Z,84.34
2023-01-20T12:16:33.000Z,84.79
2023-01-20T12:21:35.785Z,84.88
2023-01-20T12:26:37.552Z,84.63
2023-01-20T12:31:39.335Z,85.30
2023-01-20T12:36:53.771Z,84.70
2023-01-20T12:42:12.121Z,85.23
2023-01-20T12:47:22.982Z,84.80
2023-01-20T12:52:58.331Z,84.83
2023-01-20T12:58:30.974Z,84.24
2023-01-20T13:03:41.462Z,84.29
2023-01-20T13:09:06.289Z,84.37
2023-01-20T13:14:22.994Z,84.09
2023-01-20T13:19:37.311Z,84.85
2023-01-20T13:24:39.570Z,84.93
2023-01-20T13:29:50.948Z,84.31
2023-01-20T13:34:52.898Z,84.56
2023-01-20T13:39:55.171Z,83.89
2023-01-20T13:45:12.248Z,84.26
2023-01-20T13:50:31.534Z,83.88
2023-01-20T13:55:42.682Z,83.68
2023-01-20T14:00:44.630Z,83.97
2023-01-20T14:05:56.345Z,83.57
2023-01-20T14:11:08.072Z,83.82
2023-01-20T14:16:34.606Z,83.99
2023-01-20T14:21:40.698Z,84.53
2023-01-20T14:26:42.433Z,84.48
2023-01-20T14:31:45.964Z,84.29
2023-01-20T14:36:48.005Z,84.20
2023-01-20T14:41:51.606Z,84.16
2023-01-20T14:46:55.577Z,83.97
2023-01-20T14:51:57.568Z,83.81
2023-01-20T14:56:59.973Z,83.36
2023-01-20T15:02:02.831Z,83.84
2023-01-20T15:07:04.798Z,83.59
2023-01-20T15:12:47.964Z,83.63
2023-01-20T15:18:13.919Z,84.06
2023-01-20T15:23:27.602Z,84.16
2023-01-20T15:28:29.543Z,84.24
2023-01-20T15:33:31.446Z,83.99
2023-01-20T15:38:33.185Z,83.91
2023-01-20T15:43:34.930Z,83.94
2023-01-20T15:48:36.703Z,83.29
2023-01-20T15:53:38.468Z,83.34
2023-01-20T15:58:40.312Z,82.78
2023-01-20T16:03:42.723Z,82.79
2023-01-20T16:08:46.578Z,82.66
2023-01-20T16:13:48.539Z,82.67
2023-01-20T16:18:50.360Z,82.22
2023-01-20T16:23:52.226Z,82.43
2023-01-20T16:28:55.708Z,82.02
2023-01-20T16:33:57.628Z,81.84
2023-01-20T16:38:59.560Z,81.88
2023-01-20T16:44:01.419Z,81.71
2023-01-20T16:49:03.254Z,82.01
2023-01-20T16:54:05.139Z,81.69
2023-01-20T16:59:06.981Z,81.69
2023-01-20T17:04:08.749Z,81.85
2023-01-20T17:09:10.590Z,81.65
2023-01-20T17:14:12.397Z,81.63
2023-01-20T17:19:16.136Z,81.12
2023-01-20T17:24:19.257Z,81.41
2023-01-20T17:29:21.612Z,80.97
2023-01-20T17:34:23.511Z,80.86
2023-01-20T17:39:25.479Z,81.05
2023-01-20T17:44:27.387Z,80.50
2023-01-20T17:49:29.185Z,80.77
2023-01-20T17:54:31.073Z,80.45
2023-01-20T17:59:32.851Z,80.49
2023-01-20T18:04:34.640Z,80.88
2023-01-20T18:09:36.636Z,80.65
2023-01-20T18:14:38.491Z,80.33
2023-01-20T18:19:40.361Z,80.80
2023-01-20T18:24:42.235Z,80.37
2023-01-20T18:29:44.041Z,80.74
2023-01-20T18:34:46.540Z,80.00
2023-01-20T18:39:48.313Z,80.24
2023-01-20T18:44:50.844Z,80.58
2023-01-20T18:49:53.910Z,80.37
2023-01-20T18:54:55.759Z,80.94
2023-01-20T18:59:58.077Z,80.51
2023-01-20T19:04:59.981Z,80.90
2023-01-20T19:10:02.013Z,80.88
2023-01-20T19:15:07.223Z,80.99
2023-01-20T19:20:10.161Z,80.79
2023-01-20T19:25:11.933Z,80.77
2023-01-20T19:30:15.564Z,80.59
2023-01-20T19:35:17.505Z,80.76
2023-01-20T19:40:19.402Z,80.68
2023-01-20T19:45:21.295Z,80.93
2023-01-20T19:50:23.182Z,80.94
2023-01-20T19:55:25.069Z,81.04
2023-01-20T20:00:26.850Z,80.70
2023-01-20T20:05:28.863Z,80.67
2023-01-20T20:10:30.747Z,80.98
2023-01-20T20:15:32.723Z,80.90
2023-01-20T20:20:34.648Z,80.96
2023-01-20T20:25:36.507Z,81.24
2023-01-20T20:30:38.438Z,81.79
2023-01-20T20:35:40.381Z,81.83
2023-01-20T20:40:42.387Z,82.24
2023-01-20T20:45:44.286Z,82.45
2023-01-20T20:50:46.227Z,82.48
2023-01-20T20:55:48.175Z,82.58
2023-01-20T21:00:50.589Z,82.77
2023-01-20T21:05:52.511Z,82.69
2023-01-20T21:10:54.439Z,82.48
2023-01-20T21:16:04.738Z,82.63
2023-01-20T21:21:08.304Z,82.17
2023-01-20T21:26:12.344Z,82.38
2023-01-20T21:31:16.160Z,82.39
2023-01-20T21:36:18.081Z,82.30
2023-01-20T21:41:19.984Z,82.58
2023-01-20T21:46:21.778Z,82.22
2023-01-20T21:51:23.686Z,82.32
2023-01-20T21:56:25.599Z,82.09
2023-01-20T22:01:27.575Z,81.98
2023-01-20T22:06:29.557Z,82.02
2023-01-20T22:11:31.416Z,81.89
2023-01-20T22:16:33.341Z,81.59
2023-01-20T22:21:35.380Z,81.81
2023-01-20T22:26:37.215Z,81.64
2023-01-20T22:31:39.388Z,81.75
2023-01-20T22:36:41.271Z,82.33
2023-01-20T22:41:43.169Z,83.10
2023-01-20T22:46:45.030Z,83.72
2023-01-20T22:51:46.955Z,83.53
2023-01-20T22:56:48.822Z,83.84
2023-01-20T23:01:50.679Z,84.41
2023-01-20T23:06:52.513Z,85.25
2023-01-20T23:11:54.295Z,84.41
2023-01-20T23:16:56.136Z,84.25
2023-01-20T23:21:58.064Z,85.11
2023-01-20T23:26:59.962Z,85.01
2023-01-20T23:32:01.915Z,84.97
2023-01-20T23:37:04.005Z,84.49
2023-01-20T23:42:05.942Z,84.74
2023-01-20T23:47:07.717Z,84.33
2023-01-20T23:52:09.572Z,84.44
2023-01-20T23:57:11.460Z,84.78
